createdAt,value
2022-10-05T00:01:52.816Z,100330.75
2022-10-05T00:04:23.778Z,100338.81
2022-10-05T00:07:13.321Z,100341.66
2022-10-05T00:09:40.182Z,100346.72
2022-10-05T00:12:20.188Z,100331.28
2022-10-05T00:14:48.324Z,100334.44
2022-10-05T00:17:23.754Z,100327.78
2022-10-05T00:19:53.932Z,100324.41
2022-10-05T00:22:23.186Z,100328.91
2022-10-05T00:24:58.206Z,100333.72
2022-10-05T00:27:27.755Z,100330.19
2022-10-05T00:29:58.236Z,100338.94
2022-10-05T00:32:24.766Z,100328.88
2022-10-05T00:34:51.474Z,100330.47
2022-10-05T00:37:18.247Z,100324.13
2022-10-05T00:39:45.261Z,100332.19
2022-10-05T00:42:38.976Z,100323.00
2022-10-05T00:45:13.224Z,100319.19
2022-10-05T00:48:17.778Z,100328.50
2022-10-05T00:50:49.145Z,100322.69
2022-10-05T00:53:49.311Z,100327.91
2022-10-05T00:56:32.908Z,100333.56
2022-10-05T00:59:24.313Z,100333.66
2022-10-05T01:02:01.558Z,100335.91
2022-10-05T01:04:45.595Z,100333.09
2022-10-05T01:07:27.030Z,100333.94
2022-10-05T01:09:59.874Z,100325.75
2022-10-05T01:12:35.531Z,100326.94
2022-10-05T01:15:25.608Z,100318.31
2022-10-05T01:18:07.584Z,100319.28
2022-10-05T01:20:49.466Z,100322.28
2022-10-05T01:23:37.403Z,100323.53
2022-10-05T01:26:08.742Z,100316.00
2022-10-05T01:28:38.572Z,100320.78
2022-10-05T01:31:09.424Z,100316.66
2022-10-05T01:33:59.268Z,100309.22
2022-10-05T01:36:33.911Z,100306.13
2022-10-05T01:39:25.726Z,100296.25
2022-10-05T01:42:17.735Z,100292.13
2022-10-05T01:45:01.363Z,100291.56
2022-10-05T01:47:38.685Z,100296.06
2022-10-05T01:50:22.161Z,100293.09
2022-10-05T01:53:19.266Z,100292.44
2022-10-05T01:55:59.686Z,100289.59
2022-10-05T01:58:54.918Z,100277.44
2022-10-05T02:01:27.140Z,100284.78
2022-10-05T02:04:03.319Z,100289.53
2022-10-05T02:06:38.875Z,100281.03
2022-10-05T02:09:22.488Z,100279.63
2022-10-05T02:11:52.715Z,100285.78
2022-10-05T02:14:49.522Z,100303.28
2022-10-05T02:17:20.379Z,100315.47
2022-10-05T02:19:50.684Z,100306.00
2022-10-05T02:22:25.547Z,100310.38
2022-10-05T02:24:56.966Z,100293.84
2022-10-05T02:27:48.661Z,100288.88
2022-10-05T02:30:16.967Z,100295.28
2022-10-05T02:32:54.832Z,100295.81
2022-10-05T02:35:22.035Z,100291.81
2022-10-05T02:38:06.641Z,100294.88
2022-10-05T02:41:09.262Z,100299.66
2022-10-05T02:43:46.949Z,100288.34
2022-10-05T02:46:20.433Z,100291.44
2022-10-05T02:49:02.281Z,100286.31
2022-10-05T02:51:54.314Z,100274.09
2022-10-05T02:54:42.664Z,100274.94
2022-10-05T02:57:22.651Z,100271.84
2022-10-05T03:00:01.963Z,100268.94
2022-10-05T03:02:57.512Z,100273.56
2022-10-05T03:05:28.237Z,100272.97
2022-10-05T03:07:59.071Z,100269.81
2022-10-05T03:10:30.041Z,100261.47
2022-10-05T03:13:24.373Z,100259.06
2022-10-05T03:16:11.273Z,100261.00
2022-10-05T03:18:41.353Z,100261.50
2022-10-05T03:21:37.208Z,100267.41
2022-10-05T03:24:36.771Z,100256.09
2022-10-05T03:27:27.194Z,100266.38
2022-10-05T03:29:59.635Z,100259.31
2022-10-05T03:32:57.075Z,100267.03
2022-10-05T03:35:30.976Z,100266.75
2022-10-05T03:38:08.805Z,100275.34
2022-10-05T03:40:57.201Z,100274.88
2022-10-05T03:43:34.899Z,100276.69
2022-10-05T03:46:25.643Z,100269.50
2022-10-05T03:48:58.206Z,100274.13
2022-10-05T03:51:31.554Z,100269.50
2022-10-05T03:54:05.277Z,100278.28
2022-10-05T03:56:33.105Z,100271.72
2022-10-05T03:59:05.844Z,100277.31
2022-10-05T04:01:57.213Z,100272.22
2022-10-05T04:04:41.142Z,100267.13
2022-10-05T04:07:13.154Z,100271.03
2022-10-05T04:09:43.306Z,100268.50
2022-10-05T04:12:27.440Z,100279.44
2022-10-05T04:15:00.823Z,100278.59
2022-10-05T04:17:40.643Z,100277.16
2022-10-05T04:20:16.737Z,100280.44
2022-10-05T04:23:06.953Z,100280.44
2022-10-05T04:25:47.949Z,100275.50
2022-10-05T04:28:27.057Z,100271.13
2022-10-05T04:30:56.077Z,100272.34
2022-10-05T04:33:22.756Z,100266.97
2022-10-05T04:36:08.871Z,100274.41
2022-10-05T04:38:47.440Z,100272.59
2022-10-05T04:41:35.188Z,100274.66
2022-10-05T04:44:07.563Z,100283.53
2022-10-05T04:46:39.089Z,100279.75
2022-10-05T04:49:32.983Z,100289.47
2022-10-05T04:52:24.331Z,100289.72
2022-10-05T04:55:14.512Z,100281.81
2022-10-05T04:58:00.192Z,100288.88
2022-10-05T05:00:49.795Z,100294.97
2022-10-05T05:03:31.711Z,100283.53
2022-10-05T05:06:16.762Z,100277.81
2022-10-05T05:09:21.747Z,100280.59
2022-10-05T05:12:03.751Z,100270.75
2022-10-05T05:14:53.594Z,100291.06
2022-10-05T05:17:46.945Z,100287.16
2022-10-05T05:20:23.636Z,100287.91
2022-10-05T05:22:55.119Z,100279.78
2022-10-05T05:25:39.998Z,100295.63
2022-10-05T05:28:16.604Z,100292.47
2022-10-05T05:30:45.147Z,100290.63
2022-10-05T05:33:22.089Z,100282.00
2022-10-05T05:36:13.968Z,100290.75
2022-10-05T05:38:57.851Z,100292.63
2022-10-05T05:41:31.398Z,100299.16
2022-10-05T05:44:20.730Z,100290.28
2022-10-05T05:47:05.155Z,100298.41
2022-10-05T05:49:53.571Z,100301.19
2022-10-05T05:52:24.160Z,100300.75
2022-10-05T05:55:16.429Z,100297.50
2022-10-05T05:58:07.391Z,100296.50
2022-10-05T06:01:04.394Z,100306.50
2022-10-05T06:03:38.244Z,100302.22
2022-10-05T06:06:09.514Z,100301.88
2022-10-05T06:08:50.214Z,100293.94
2022-10-05T06:11:20.813Z,100280.09
2022-10-05T06:13:47.924Z,100290.97
2022-10-05T06:16:35.801Z,100303.47
2022-10-05T06:19:11.583Z,100310.13
2022-10-05T06:21:59.371Z,100315.81
2022-10-05T06:24:34.527Z,100311.97
2022-10-05T06:27:16.395Z,100329.13
2022-10-05T06:30:01.047Z,100328.47
2022-10-05T06:32:31.669Z,100343.84
2022-10-05T06:35:10.195Z,100360.09
2022-10-05T06:37:55.854Z,100355.75
2022-10-05T06:40:30.314Z,100350.31
2022-10-05T06:43:36.569Z,100357.91
2022-10-05T06:46:30.760Z,100358.09
2022-10-05T06:49:07.435Z,100355.53
2022-10-05T06:51:59.429Z,100355.69
2022-10-05T06:54:46.048Z,100357.06
2022-10-05T06:57:31.066Z,100351.91
2022-10-05T07:00:07.651Z,100335.81
2022-10-05T07:02:56.282Z,100334.88
2022-10-05T07:05:39.837Z,100341.41
2022-10-05T07:08:12.398Z,100340.31
2022-10-05T07:10:52.646Z,100345.50
2022-10-05T07:13:47.383Z,100338.84
2022-10-05T07:16:30.178Z,100332.94
2022-10-05T07:19:11.649Z,100337.59
2022-10-05T07:21:54.485Z,100329.69
2022-10-05T07:24:30.328Z,100321.75
2022-10-05T07:27:13.366Z,100329.75
2022-10-05T07:29:59.074Z,100324.31
2022-10-05T07:32:46.138Z,100332.75
2022-10-05T07:35:41.261Z,100327.38
2022-10-05T07:38:14.071Z,100328.09
2022-10-05T07:40:56.405Z,100321.00
2022-10-05T07:44:00.475Z,100320.72
2022-10-05T07:46:42.814Z,100314.25
2022-10-05T07:49:25.454Z,100321.66
2022-10-05T07:52:21.473Z,100314.72
2022-10-05T07:54:59.072Z,100314.00
2022-10-05T07:57:39.501Z,100322.22
2022-10-05T08:00:43.476Z,100329.09
2022-10-05T08:03:15.962Z,100317.69
2022-10-05T08:05:43.916Z,100314.56
2022-10-05T08:08:10.999Z,100313.44
2022-10-05T08:10:47.439Z,100314.28
2022-10-05T08:13:20.957Z,100310.81
2022-10-05T08:15:51.939Z,100315.44
2022-10-05T08:18:46.578Z,100312.09
2022-10-05T08:21:16.175Z,100309.81
2022-10-05T08:23:51.029Z,100310.38
2022-10-05T08:26:22.807Z,100306.28
2022-10-05T08:29:21.729Z,100302.09
2022-10-05T08:31:58.062Z,100299.13
2022-10-05T08:34:42.161Z,100286.91
2022-10-05T08:37:13.905Z,100292.47
2022-10-05T08:39:48.110Z,100289.13
2022-10-05T08:42:48.692Z,100291.44
2022-10-05T08:45:44.297Z,100292.34
2022-10-05T08:48:51.988Z,100294.41
2022-10-05T08:51:18.613Z,100291.06
2022-10-05T08:54:22.842Z,100287.16
2022-10-05T08:56:58.530Z,100285.06
2022-10-05T08:59:54.180Z,100275.09
2022-10-05T09:02:32.233Z,100285.81
2022-10-05T09:05:20.956Z,100278.44
2022-10-05T09:08:22.234Z,100269.81
2022-10-05T09:11:03.628Z,100268.78
2022-10-05T09:13:39.115Z,100266.75
2022-10-05T09:16:08.803Z,100260.94
2022-10-05T09:18:53.363Z,100254.84
2022-10-05T09:21:42.703Z,100255.31
2022-10-05T09:24:12.419Z,100248.81
2022-10-05T09:26:53.526Z,100255.53
2022-10-05T09:29:38.517Z,100253.63
2022-10-05T09:32:25.107Z,100245.28
2022-10-05T09:35:31.964Z,100252.84
2022-10-05T09:38:24.957Z,100251.22
2022-10-05T09:41:28.358Z,100248.47
2022-10-05T09:44:16.187Z,100243.09
2022-10-05T09:46:58.127Z,100243.44
2022-10-05T09:49:36.962Z,100241.03
2022-10-05T09:52:34.961Z,100245.75
2022-10-05T09:55:19.991Z,100242.50
2022-10-05T09:57:55.698Z,100234.75
2022-10-05T10:00:33.215Z,100237.81
2022-10-05T10:03:39.299Z,100231.50
2022-10-05T10:06:17.201Z,100225.03
2022-10-05T10:09:06.430Z,100230.41
2022-10-05T10:11:55.012Z,100236.56
2022-10-05T10:14:36.153Z,100226.19
2022-10-05T10:17:18.115Z,100218.00
2022-10-05T10:20:05.912Z,100215.28
2022-10-05T10:22:57.442Z,100219.00
2022-10-05T10:25:44.594Z,100215.38
2022-10-05T10:28:33.174Z,100214.78
2022-10-05T10:31:26.129Z,100209.56
2022-10-05T10:34:21.466Z,100212.69
2022-10-05T10:37:11.082Z,100208.25
2022-10-05T10:40:27.016Z,100198.81
2022-10-05T10:43:18.531Z,100203.53
2022-10-05T10:46:08.515Z,100202.13
2022-10-05T10:48:45.975Z,100195.34
2022-10-05T10:51:36.153Z,100198.97
2022-10-05T10:54:12.601Z,100199.19
2022-10-05T10:56:55.324Z,100195.28
2022-10-05T10:59:50.070Z,100200.28
2022-10-05T11:02:37.982Z,100196.31
2022-10-05T11:05:19.952Z,100198.56
2022-10-05T11:08:05.011Z,100196.91
2022-10-05T11:10:56.598Z,100202.06
2022-10-05T11:13:33.366Z,100197.75
2022-10-05T11:16:30.926Z,100193.31
2022-10-05T11:19:05.070Z,100194.75
2022-10-05T11:21:39.094Z,100188.88
2022-10-05T11:25:03.023Z,100188.19
2022-10-05T11:27:54.056Z,100181.69
2022-10-05T11:31:02.573Z,100177.03
2022-10-05T11:33:44.039Z,100171.47
2022-10-05T11:36:25.905Z,100177.75
2022-10-05T11:39:41.167Z,100169.25
2022-10-05T11:42:14.049Z,100171.53
2022-10-05T11:44:59.607Z,100169.78
2022-10-05T11:47:26.010Z,100167.03
2022-10-05T11:50:20.665Z,100167.72
2022-10-05T11:52:53.674Z,100171.41
2022-10-05T11:55:42.758Z,100172.09
2022-10-05T11:58:28.798Z,100165.63
2022-10-05T12:00:58.235Z,100161.84
2022-10-05T12:03:37.561Z,100157.34
2022-10-05T12:06:30.662Z,100158.66
2022-10-05T12:09:10.928Z,100157.19
2022-10-05T12:11:59.853Z,100156.00
2022-10-05T12:14:49.323Z,100158.53
2022-10-05T12:17:27.923Z,100146.44
2022-10-05T12:19:58.627Z,100143.34
2022-10-05T12:22:43.827Z,100149.31
2022-10-05T12:25:26.132Z,100150.16
2022-10-05T12:27:54.940Z,100152.69
2022-10-05T12:30:55.826Z,100150.25
2022-10-05T12:34:03.312Z,100146.13
2022-10-05T12:36:59.556Z,100140.38
2022-10-05T12:39:39.421Z,100133.56
2022-10-05T12:42:26.386Z,100131.38
2022-10-05T12:45:21.960Z,100130.28
2022-10-05T12:48:18.901Z,100128.78
2022-10-05T12:51:09.493Z,100127.66
2022-10-05T12:54:18.019Z,100134.50
2022-10-05T12:57:24.219Z,100130.94
2022-10-05T12:59:55.390Z,100123.28
2022-10-05T13:02:24.895Z,100128.25
2022-10-05T13:05:00.093Z,100121.59
2022-10-05T13:07:48.432Z,100116.50
2022-10-05T13:10:42.054Z,100114.47
2022-10-05T13:13:22.184Z,100107.53
2022-10-05T13:15:51.722Z,100119.94
2022-10-05T13:18:56.013Z,100125.56
2022-10-05T13:21:41.403Z,100119.75
2022-10-05T13:24:27.011Z,100115.88
2022-10-05T13:26:58.236Z,100120.78
2022-10-05T13:29:49.899Z,100119.78
2022-10-05T13:32:23.180Z,100115.16
2022-10-05T13:35:17.246Z,100121.22
2022-10-05T13:38:08.810Z,100106.94
2022-10-05T13:40:47.479Z,100120.59
2022-10-05T13:43:28.299Z,100114.75
2022-10-05T13:46:07.323Z,100117.91
2022-10-05T13:49:01.291Z,100123.97
2022-10-05T13:51:30.434Z,100122.59
2022-10-05T13:54:08.953Z,100118.66
2022-10-05T13:56:43.251Z,100115.19
2022-10-05T13:59:32.492Z,100111.75
2022-10-05T14:02:09.020Z,100116.22
2022-10-05T14:04:57.622Z,100107.09
2022-10-05T14:07:34.919Z,100110.19
2022-10-05T14:10:03.775Z,100108.16
2022-10-05T14:12:38.550Z,100102.78
2022-10-05T14:15:19.936Z,100103.59
2022-10-05T14:17:46.579Z,100105.56
2022-10-05T14:20:34.208Z,100102.84
2022-10-05T14:23:27.145Z,100100.41
2022-10-05T14:25:54.401Z,100102.69
2022-10-05T14:28:39.124Z,100103.97
2022-10-05T14:31:27.880Z,100099.56
2022-10-05T14:33:54.337Z,100106.56
2022-10-05T14:36:36.347Z,100091.00
2022-10-05T14:39:05.139Z,100090.75
2022-10-05T14:41:37.266Z,100086.53
2022-10-05T14:44:12.781Z,100088.13
2022-10-05T14:46:49.888Z,100099.44
2022-10-05T14:49:37.235Z,100094.38
2022-10-05T14:52:32.477Z,100086.41
2022-10-05T14:55:08.025Z,100097.16
2022-10-05T14:57:41.688Z,100091.19
2022-10-05T15:00:08.185Z,100087.59
2022-10-05T15:02:48.024Z,100094.19
2022-10-05T15:05:38.751Z,100098.00
2022-10-05T15:08:35.940Z,100087.84
2022-10-05T15:11:09.704Z,100089.22
2022-10-05T15:13:39.015Z,100091.00
2022-10-05T15:16:09.260Z,100097.06
2022-10-05T15:19:00.218Z,100098.19
2022-10-05T15:21:48.629Z,100095.47
2022-10-05T15:24:21.625Z,100101.00
2022-10-05T15:26:53.783Z,100103.72
2022-10-05T15:29:52.166Z,100092.06
2022-10-05T15:32:47.959Z,100093.88
2022-10-05T15:35:45.987Z,100090.22
2022-10-05T15:39:00.367Z,100089.19
2022-10-05T15:41:40.882Z,100087.38
2022-10-05T15:44:31.046Z,100088.75
2022-10-05T15:47:08.817Z,100085.03
2022-10-05T15:50:07.658Z,100087.59
2022-10-05T15:52:41.230Z,100088.06
2022-10-05T15:55:28.740Z,100090.59
2022-10-05T15:58:13.968Z,100094.34
2022-10-05T16:00:47.948Z,100093.53
2022-10-05T16:03:45.148Z,100096.47
2022-10-05T16:07:01.633Z,100088.84
2022-10-05T16:09:53.288Z,100087.81
2022-10-05T16:12:37.398Z,100089.84
2022-10-05T16:15:28.405Z,100084.34
2022-10-05T16:18:18.490Z,100092.00
2022-10-05T16:21:15.019Z,100093.66
2022-10-05T16:23:44.560Z,100086.63
2022-10-05T16:26:20.253Z,100091.41
2022-10-05T16:29:04.609Z,100089.44
2022-10-05T16:31:55.972Z,100101.09
2022-10-05T16:34:44.915Z,100094.03
2022-10-05T16:37:18.368Z,100095.16
2022-10-05T16:39:59.078Z,100092.19
2022-10-05T16:43:04.426Z,100094.06
2022-10-05T16:46:03.304Z,100093.50
2022-10-05T16:48:37.179Z,100104.75
2022-10-05T16:51:17.019Z,100104.47
2022-10-05T16:53:49.528Z,100101.25
2022-10-05T16:56:18.652Z,100105.75
2022-10-05T16:59:12.520Z,100112.94
2022-10-05T17:02:17.001Z,100110.13
2022-10-05T17:05:00.818Z,100112.75
2022-10-05T17:07:58.654Z,100116.31
2022-10-05T17:10:37.872Z,100113.50
2022-10-05T17:13:35.138Z,100115.66
2022-10-05T17:16:12.709Z,100118.38
2022-10-05T17:18:39.165Z,100118.38
2022-10-05T17:21:12.406Z,100122.78
2022-10-05T17:23:45.073Z,100105.53
2022-10-05T17:26:30.597Z,100106.19
2022-10-05T17:29:16.292Z,100114.91
2022-10-05T17:32:18.649Z,100108.16
2022-10-05T17:35:22.194Z,100109.00
2022-10-05T17:38:22.619Z,100104.72
2022-10-05T17:41:11.504Z,100105.56
2022-10-05T17:43:38.457Z,100104.72
2022-10-05T17:46:08.151Z,100101.25
2022-10-05T17:48:45.087Z,100101.63
2022-10-05T17:51:56.185Z,100103.13
2022-10-05T17:54:48.263Z,100101.31
2022-10-05T17:57:27.001Z,100110.31
2022-10-05T17:59:53.658Z,100108.97
2022-10-05T18:02:22.619Z,100106.00
2022-10-05T18:05:04.662Z,100109.75
2022-10-05T18:07:38.001Z,100103.66
2022-10-05T18:13:50.251Z,100120.13
2022-10-05T18:16:54.673Z,100119.66
2022-10-05T18:19:21.971Z,100124.28
2022-10-05T18:22:18.130Z,100118.34
2022-10-05T18:24:55.723Z,100116.06
2022-10-05T18:27:38.242Z,100114.16
2022-10-05T18:30:19.687Z,100119.66
2022-10-05T18:32:55.404Z,100119.56
2022-10-05T18:35:39.978Z,100122.91
2022-10-05T18:38:25.442Z,100127.97
2022-10-05T18:41:02.269Z,100123.31
2022-10-05T18:43:37.690Z,100127.13
2022-10-05T18:46:31.926Z,100135.19
2022-10-05T18:49:14.486Z,100126.47
2022-10-05T18:51:54.165Z,100123.53
2022-10-05T18:54:57.628Z,100126.84
2022-10-05T18:57:40.356Z,100131.31
2022-10-05T19:00:15.995Z,100127.78
2022-10-05T19:02:48.460Z,100126.63
2022-10-05T19:05:46.357Z,100133.25
2022-10-05T19:08:13.747Z,100126.50
2022-10-05T19:11:19.456Z,100135.63
2022-10-05T19:14:09.797Z,100137.75
2022-10-05T19:16:54.789Z,100138.03
2022-10-05T19:19:33.626Z,100135.63
2022-10-05T19:22:36.178Z,100145.13
2022-10-05T19:25:16.315Z,100142.69
2022-10-05T19:28:13.318Z,100151.13
2022-10-05T19:30:49.733Z,100151.41
2022-10-05T19:33:20.288Z,100152.91
2022-10-05T19:36:18.146Z,100149.50
2022-10-05T19:39:12.418Z,100159.09
2022-10-05T19:41:57.756Z,100162.19
2022-10-05T19:44:56.744Z,100168.97
2022-10-05T19:47:47.381Z,100164.63
2022-10-05T19:50:21.400Z,100165.00
2022-10-05T19:52:51.010Z,100174.19
2022-10-05T19:55:20.498Z,100174.75
2022-10-05T19:57:47.943Z,100171.28
2022-10-05T20:00:26.893Z,100170.78
2022-10-05T20:03:12.360Z,100172.31
2022-10-05T20:05:39.696Z,100171.28
2022-10-05T20:08:06.851Z,100177.25
2022-10-05T20:10:33.695Z,100177.28
2022-10-05T20:13:01.880Z,100176.44
2022-10-05T20:15:49.354Z,100174.75
2022-10-05T20:18:50.274Z,100185.91
2022-10-05T20:21:41.488Z,100185.56
2022-10-05T20:24:08.889Z,100187.28
2022-10-05T20:27:01.378Z,100185.91
2022-10-05T20:29:29.415Z,100190.13
2022-10-05T20:31:56.517Z,100202.63
2022-10-05T20:34:23.230Z,100204.81
2022-10-05T20:36:50.905Z,100208.06
2022-10-05T20:39:18.414Z,100203.50
2022-10-05T20:41:45.543Z,100213.66
2022-10-05T20:44:13.010Z,100198.78
2022-10-05T20:46:41.697Z,100209.78
2022-10-05T20:49:10.616Z,100206.22
2022-10-05T20:51:40.617Z,100205.38
2022-10-05T20:54:07.975Z,100210.63
2022-10-05T20:56:34.679Z,100209.25
2022-10-05T20:59:01.487Z,100212.31
2022-10-05T21:01:28.934Z,100212.47
2022-10-05T21:03:55.722Z,100218.41
2022-10-05T21:06:22.339Z,100222.09
2022-10-05T21:08:50.839Z,100221.44
2022-10-05T21:11:17.332Z,100222.25
2022-10-05T21:13:47.603Z,100225.13
2022-10-05T21:16:17.368Z,100221.25
2022-10-05T21:18:46.892Z,100216.38
2022-10-05T21:21:14.917Z,100222.44
2022-10-05T21:23:41.362Z,100224.31
2022-10-05T21:26:09.016Z,100234.28
2022-10-05T21:28:35.657Z,100223.47
2022-10-05T21:31:02.519Z,100228.66
2022-10-05T21:33:29.552Z,100236.66
2022-10-05T21:35:56.192Z,100235.13
2022-10-05T21:38:22.670Z,100227.00
2022-10-05T21:40:49.238Z,100224.31
2022-10-05T21:43:15.689Z,100221.94
2022-10-05T21:45:42.792Z,100225.66
2022-10-05T21:48:09.708Z,100218.56
2022-10-05T21:50:37.589Z,100227.50
2022-10-05T21:53:05.702Z,100236.44
2022-10-05T21:55:32.979Z,100229.72
2022-10-05T21:58:00.021Z,100233.94
2022-10-05T22:00:27.300Z,100232.41
2022-10-05T22:02:53.979Z,100231.88
2022-10-05T22:05:20.491Z,100233.91
2022-10-05T22:07:47.177Z,100237.28
2022-10-05T22:10:13.877Z,100234.75
2022-10-05T22:12:42.578Z,100236.94
2022-10-05T22:15:09.769Z,100236.44
2022-10-05T22:17:36.628Z,100229.66
2022-10-05T22:20:03.759Z,100239.19
2022-10-05T22:22:30.720Z,100231.22
2022-10-05T22:24:57.145Z,100245.09
2022-10-05T22:27:25.192Z,100243.91
2022-10-05T22:29:51.828Z,100246.28
2022-10-05T22:32:18.388Z,100251.53
2022-10-05T22:34:44.977Z,100260.69
2022-10-05T22:37:15.614Z,100261.16
2022-10-05T22:39:42.805Z,100253.91
2022-10-05T22:42:10.315Z,100264.13
2022-10-05T22:44:36.862Z,100267.13
2022-10-05T22:47:03.895Z,100272.28
2022-10-05T22:49:30.314Z,100280.72
2022-10-05T22:51:56.830Z,100295.38
2022-10-05T22:54:27.443Z,100306.25
2022-10-05T22:56:55.852Z,100296.97
2022-10-05T22:59:22.693Z,100299.84
2022-10-05T23:01:49.209Z,100305.09
2022-10-05T23:04:15.717Z,100298.09
2022-10-05T23:06:42.728Z,100306.13
2022-10-05T23:09:09.183Z,100313.25
2022-10-05T23:11:35.680Z,100307.19
2022-10-05T23:14:02.140Z,100315.06
2022-10-05T23:16:28.940Z,100320.16
2022-10-05T23:18:56.066Z,100322.03
2022-10-05T23:21:24.160Z,100326.75
2022-10-05T23:23:53.205Z,100325.94
2022-10-05T23:26:22.497Z,100331.78
2022-10-05T23:28:50.107Z,100321.38
2022-10-05T23:31:23.608Z,100324.00
2022-10-05T23:33:50.161Z,100323.38
2022-10-05T23:36:21.870Z,100324.50
2022-10-05T23:38:48.443Z,100334.63
2022-10-05T23:41:16.073Z,100334.56
2022-10-05T23:43:42.967Z,100330.50
2022-10-05T23:46:09.961Z,100328.22
2022-10-05T23:48:39.449Z,100333.75
2022-10-05T23:51:07.297Z,100342.66
2022-10-05T23:53:34.032Z,100340.59
2022-10-05T23:56:00.489Z,100340.44
2022-10-05T23:58:27.449Z,100350.22
